Brookfield, Ohio
Current Conditions -  °F | °C
As of 8:51 AM on Monday 22 Dec 2014 (Local Time) from KYNG Reporting Station
Scattered Clouds Scattered Clouds  
Wind Chill: 16°   Ceiling: Unl
Heat Index: 25°   Visibility: 7mi
Dew Point: 21°   Wind: 8mph
Humidity: 85%   Direction: 120°ESE
Pressure: 30.11"   Gusts: NA
Location:  41.23°N, 80.57°W
Report Text: KYNG 221351Z 12007KT 7SM SCT120 SCT250 M04/M06 A3011 RMK AO2 SLP211 T10391061
Loading
Personal Weather Stations






























Interactive Weather Map New forecast layout! Learn more

10-Day Weather Forecast

Advertisements
Track Severe Weather on mobile